Time;durP1;ratioP1;P1;durP2;ratioP2;P2;SDS_P1;SDS_P2;PMS_P1;PMS_P2;Temp;Humidity;BMP_temperature;BMP_pressure;BME280_temperature;BME280_humidity;BME280_pressure;Samples;Min_cycle;Max_cycle;Signal;HPM_P1;HPM_P2
2022/01/21 00:00:13;;;;;;;12.80;3.10;;;;;;;3.44;72.71;103334.31;5072213;28;20074;-61
2022/01/21 00:02:44;;;;;;;14.82;3.08;;;;;;;3.47;73.62;103334.56;5072279;28;20111;-61
2022/01/21 00:05:10;;;;;;;18.17;3.70;;;;;;;3.48;73.84;103340.72;5071993;28;20107;-61
2022/01/21 00:07:35;;;;;;;10.32;2.95;;;;;;;3.44;73.21;103338.63;5072376;28;20537;-62
2022/01/21 00:10:01;;;;;;;13.80;3.22;;;;;;;3.41;73.58;103348.84;5072009;28;20107;-62
2022/01/21 00:12:29;;;;;;;15.18;3.15;;;;;;;3.38;74.02;103340.75;5072523;28;20021;-62
2022/01/21 00:14:55;;;;;;;14.10;3.25;;;;;;;3.31;73.90;103336.75;5072247;28;20106;-62
2022/01/21 00:17:22;;;;;;;19.42;3.47;;;;;;;3.33;75.40;103335.16;5072675;28;20469;-61
2022/01/21 00:19:51;;;;;;;9.02;3.00;;;;;;;3.39;74.66;103338.28;5072455;28;20397;-61
2022/01/21 00:30:29;;;;;;;11.85;2.90;;;;;;;3.56;73.96;103339.63;5076072;28;20093;-61
2022/01/21 00:32:54;;;;;;;13.07;3.50;;;;;;;3.53;74.28;103335.84;5075966;28;20025;-61
2022/01/21 00:35:20;;;;;;;18.27;3.58;;;;;;;3.50;74.39;103332.19;5075631;28;20048;-61
2022/01/21 00:37:47;;;;;;;12.73;3.13;;;;;;;3.50;74.24;103331.28;5075853;28;20032;-61
2022/01/21 00:40:20;;;;;;;16.27;3.22;;;;;;;3.48;74.39;103331.16;5075617;28;20020;-61
2022/01/21 00:42:53;;;;;;;12.88;3.00;;;;;;;3.43;73.95;103329.88;5075723;28;20040;-61
2022/01/21 00:45:20;;;;;;;11.23;2.72;;;;;;;3.39;74.23;103335.66;5075889;28;20428;-61
2022/01/21 00:47:46;;;;;;;10.18;2.65;;;;;;;3.39;73.82;103337.38;5075790;28;20056;-61
2022/01/21 00:50:13;;;;;;;13.68;3.10;;;;;;;3.41;74.56;103336.69;5075835;28;20044;-61
2022/01/21 00:52:39;;;;;;;14.90;2.92;;;;;;;3.49;73.77;103339.91;5075669;28;20107;-61
2022/01/21 00:55:06;;;;;;;13.50;3.08;;;;;;;3.46;73.73;103339.66;5075527;28;20107;-61
2022/01/21 00:57:32;;;;;;;15.13;3.55;;;;;;;3.42;73.83;103341.09;5075528;28;20490;-61
2022/01/21 00:59:57;;;;;;;13.45;3.25;;;;;;;3.37;74.54;103338.94;5075400;28;20051;-61
2022/01/21 01:02:23;;;;;;;13.55;3.40;;;;;;;3.34;74.10;103338.69;5075375;28;20051;-61
2022/01/21 01:04:48;;;;;;;12.75;3.17;;;;;;;3.36;74.16;103344.94;5075274;28;20024;-61
2022/01/21 01:07:14;;;;;;;15.38;3.08;;;;;;;3.33;74.51;103347.31;5075192;28;20074;-61
2022/01/21 01:09:41;;;;;;;10.52;2.90;;;;;;;3.33;73.97;103353.44;5075329;28;20393;-61
2022/01/21 01:12:18;;;;;;;11.05;2.90;;;;;;;3.29;73.68;103351.38;5075511;28;20413;-61
2022/01/21 01:20:13;;;;;;;14.23;3.03;;;;;;;3.12;74.51;103344.78;5075400;28;20044;-61
2022/01/21 01:23:00;;;;;;;14.15;2.78;;;;;;;3.08;74.79;103353.16;5075138;28;20169;-60
2022/01/21 01:28:09;;;;;;;12.73;2.90;;;;;;;3.08;75.46;103333.97;5074941;28;20496;-61
2022/01/21 01:30:36;;;;;;;8.40;2.65;;;;;;;3.10;74.97;103335.94;5074774;28;20032;-61
2022/01/21 01:33:05;;;;;;;15.43;3.35;;;;;;;3.09;75.23;103327.97;5074861;28;20051;-61
2022/01/21 01:35:33;;;;;;;10.68;2.38;;;;;;;3.09;75.33;103331.50;5074736;28;20094;-61
2022/01/21 01:41:11;;;;;;;11.70;2.90;;;;;;;3.06;74.99;103319.88;5012751;28;20045;-61
2022/01/21 01:51:49;;;;;;;13.93;2.50;;;;;;;2.94;75.75;103331.16;5074720;28;20394;-61
2022/01/21 01:54:15;;;;;;;9.82;2.40;;;;;;;2.88;76.61;103327.16;5074563;28;20025;-60
2022/01/21 01:56:49;;;;;;;8.30;2.50;;;;;;;2.85;76.40;103319.06;5074663;28;20119;-61
2022/01/21 01:59:14;;;;;;;12.10;2.63;;;;;;;2.89;76.07;103313.28;5074389;28;20484;-61
2022/01/21 02:01:40;;;;;;;15.35;3.63;;;;;;;2.88;76.29;103314.09;5074062;28;20021;-61
2022/01/21 02:04:06;;;;;;;7.45;2.15;;;;;;;2.88;76.33;103320.22;5074031;28;20033;-61
2022/01/21 02:06:32;;;;;;;13.52;2.53;;;;;;;2.83;76.21;103316.31;5074062;28;20377;-61
2022/01/21 02:08:59;;;;;;;8.73;2.30;;;;;;;2.81;76.21;103320.50;5074152;28;20024;-61
2022/01/21 02:11:24;;;;;;;9.75;3.08;;;;;;;2.81;76.91;103330.94;5074313;28;20029;-60
2022/01/21 02:13:56;;;;;;;10.05;2.30;;;;;;;2.80;76.18;103329.13;5074090;28;20027;-61
2022/01/21 02:21:39;;;;;;;9.63;2.38;;;;;;;2.75;76.62;103333.06;5073952;28;20039;-61
2022/01/21 02:24:06;;;;;;;8.57;2.20;;;;;;;2.71;76.71;103331.88;5073901;28;20545;-61
2022/01/21 02:26:33;;;;;;;10.27;2.65;;;;;;;2.69;76.55;103324.69;5073768;28;20107;-61
2022/01/21 02:28:59;;;;;;;11.85;2.40;;;;;;;2.69;76.77;103317.78;5073742;28;20020;-61
2022/01/21 02:31:25;;;;;;;10.75;2.40;;;;;;;2.75;76.97;103317.41;5073472;28;20085;-61
2022/01/21 02:33:51;;;;;;;18.45;2.67;;;;;;;2.74;76.52;103321.72;5073531;28;20048;-60
2022/01/21 02:36:16;;;;;;;11.75;2.33;;;;;;;2.73;76.72;103318.94;5073500;28;20029;-61
2022/01/21 02:38:42;;;;;;;7.95;1.92;;;;;;;2.73;77.06;103319.84;5073585;28;20016;-60
2022/01/21 02:41:08;;;;;;;13.30;2.30;;;;;;;2.75;76.19;103322.63;5073419;28;20032;-61
2022/01/21 02:43:33;;;;;;;9.93;2.90;;;;;;;2.76;76.38;103322.72;5073565;28;20359;-61
2022/01/21 02:46:04;;;;;;;13.82;2.70;;;;;;;2.78;76.72;103317.63;5073327;28;20031;-61
2022/01/21 02:48:30;;;;;;;10.85;2.15;;;;;;;2.82;76.28;103327.53;5073446;28;20078;-61
2022/01/21 02:50:55;;;;;;;11.23;2.15;;;;;;;2.86;75.75;103323.47;5073333;28;20036;-61
2022/01/21 02:55:46;;;;;;;10.20;2.13;;;;;;;2.81;75.83;103325.72;5073597;28;20028;-61
2022/01/21 02:58:11;;;;;;;8.15;2.00;;;;;;;2.77;76.12;103336.69;5073284;28;20032;-60
2022/01/21 03:00:37;;;;;;;9.23;1.90;;;;;;;2.75;76.62;103335.66;5073115;28;20042;-61
2022/01/21 03:03:04;;;;;;;9.38;1.88;;;;;;;2.73;76.15;103327.69;5073365;28;20036;-60
2022/01/21 03:05:30;;;;;;;7.88;2.00;;;;;;;2.79;76.38;103335.13;5073355;28;20020;-60
2022/01/21 03:07:55;;;;;;;11.90;2.28;;;;;;;2.81;76.62;103336.16;5073288;28;20085;-60
2022/01/21 03:10:21;;;;;;;8.10;2.17;;;;;;;2.81;76.45;103330.03;5073200;28;20048;-61
2022/01/21 03:12:47;;;;;;;8.32;2.30;;;;;;;2.78;76.50;103338.50;5073199;28;20035;-60
2022/01/21 03:15:13;;;;;;;9.45;1.98;;;;;;;2.81;76.19;103333.53;5073054;28;20481;-61
2022/01/21 03:17:39;;;;;;;12.10;2.72;;;;;;;2.79;76.42;103342.97;5072936;28;20095;-61
2022/01/21 03:20:06;;;;;;;12.38;2.40;;;;;;;2.75;76.53;103338.28;5073015;28;20028;-60
2022/01/21 03:22:32;;;;;;;8.75;2.40;;;;;;;2.73;76.77;103337.22;5073058;28;20158;-61
2022/01/21 03:24:58;;;;;;;7.38;2.28;;;;;;;2.77;76.75;103339.31;5073052;28;20475;-61
2022/01/21 03:27:25;;;;;;;7.70;2.20;;;;;;;2.79;76.74;103337.75;5073007;28;20021;-61
2022/01/21 03:29:50;;;;;;;15.07;2.70;;;;;;;2.86;76.61;103340.06;5073063;28;20405;-61
2022/01/21 03:32:16;;;;;;;7.50;2.17;;;;;;;2.86;76.74;103347.88;5072830;28;20029;-60
2022/01/21 03:34:41;;;;;;;13.93;2.47;;;;;;;2.84;76.60;103352.09;5072777;28;20040;-61
2022/01/21 03:37:07;;;;;;;12.48;2.95;;;;;;;2.83;76.80;103350.28;5072874;28;20025;-60
2022/01/21 03:39:32;;;;;;;9.35;2.40;;;;;;;2.76;76.85;103348.84;5072820;28;20062;-60
2022/01/21 03:41:58;;;;;;;11.45;2.60;;;;;;;2.72;77.78;103351.97;5072820;28;20033;-60
2022/01/21 03:44:23;;;;;;;11.88;2.30;;;;;;;2.69;77.09;103353.41;5072911;28;20055;-61
2022/01/21 03:46:50;;;;;;;9.98;2.75;;;;;;;2.65;77.52;103346.13;5072642;28;20021;-61
2022/01/21 03:49:15;;;;;;;9.15;2.78;;;;;;;2.64;77.97;103352.13;5072650;28;20024;-61
2022/01/21 03:51:41;;;;;;;11.98;2.80;;;;;;;2.60;78.01;103345.75;5072759;28;20367;-60
2022/01/21 03:54:06;;;;;;;11.05;2.45;;;;;;;2.66;78.01;103350.56;5072683;28;20466;-60
2022/01/21 03:56:32;;;;;;;12.90;2.25;;;;;;;2.64;78.06;103357.34;5072691;28;20520;-61
2022/01/21 03:58:58;;;;;;;10.23;2.38;;;;;;;2.64;78.06;103350.44;5072893;28;20052;-61
2022/01/21 04:01:25;;;;;;;9.75;2.92;;;;;;;2.63;78.41;103361.66;5072544;28;20036;-60
2022/01/21 04:03:53;;;;;;;9.98;2.10;;;;;;;2.62;79.06;103364.16;5073591;28;20028;-61
2022/01/21 04:06:18;;;;;;;9.55;2.20;;;;;;;2.57;78.57;103353.34;5076779;28;20430;-61
2022/01/21 04:08:44;;;;;;;10.48;2.03;;;;;;;2.57;78.68;103355.94;5076350;28;20104;-60
2022/01/21 04:11:09;;;;;;;9.45;2.72;;;;;;;2.57;79.41;103352.41;5076612;28;20470;-61
2022/01/21 04:13:35;;;;;;;10.85;2.30;;;;;;;2.53;78.90;103348.66;5076421;28;20020;-60
2022/01/21 04:16:01;;;;;;;9.48;2.20;;;;;;;2.56;79.04;103345.34;5076200;28;20024;-60
2022/01/21 04:18:26;;;;;;;13.18;2.60;;;;;;;2.58;79.04;103347.31;5076161;28;20048;-61
2022/01/21 04:20:52;;;;;;;7.70;2.35;;;;;;;2.53;79.06;103347.69;5076093;28;20067;-61
2022/01/21 04:23:20;;;;;;;8.50;2.50;;;;;;;2.49;79.40;103342.25;5076100;28;20451;-61
2022/01/21 04:25:46;;;;;;;8.93;2.10;;;;;;;2.46;79.24;103346.28;5076427;28;20154;-60
2022/01/21 04:28:12;;;;;;;8.48;2.38;;;;;;;2.43;79.41;103340.81;5076064;28;20462;-60
2022/01/21 04:30:38;;;;;;;13.27;2.25;;;;;;;2.43;79.41;103346.94;5075976;28;20077;-60
2022/01/21 04:33:04;;;;;;;9.02;2.17;;;;;;;2.42;79.47;103342.50;5075633;28;20401;-61
2022/01/21 04:35:30;;;;;;;8.75;2.10;;;;;;;2.36;80.01;103346.31;5075719;28;20024;-60
2022/01/21 04:38:00;;;;;;;10.27;2.10;;;;;;;2.32;79.94;103344.22;5075905;28;20024;-60
2022/01/21 04:40:30;;;;;;;10.10;2.28;;;;;;;2.30;80.26;103346.69;5075907;28;20603;-60
2022/01/21 04:48:25;;;;;;;10.85;2.38;;;;;;;2.44;79.95;103353.06;5075729;28;20055;-61
2022/01/21 04:50:54;;;;;;;6.40;2.30;;;;;;;2.42;80.09;103346.81;5075927;28;20466;-60
2022/01/21 04:53:21;;;;;;;9.73;2.20;;;;;;;2.37;80.40;103348.13;5075671;28;20028;-60
2022/01/21 04:55:47;;;;;;;8.55;2.10;;;;;;;2.37;80.42;103337.69;5075653;28;20056;-60
2022/01/21 04:58:14;;;;;;;8.43;2.20;;;;;;;2.36;80.32;103347.22;5075484;28;20101;-61
2022/01/21 05:00:39;;;;;;;7.25;1.85;;;;;;;2.34;80.26;103338.34;5075327;28;20029;-61
2022/01/21 05:03:04;;;;;;;8.05;2.20;;;;;;;2.34;80.69;103332.22;5075385;28;20025;-61
2022/01/21 05:05:30;;;;;;;8.95;1.90;;;;;;;2.36;80.37;103331.56;5075551;28;20409;-61
2022/01/21 05:07:59;;;;;;;8.30;2.08;;;;;;;2.32;80.68;103325.97;5075387;28;20342;-61
2022/01/21 05:10:27;;;;;;;12.82;2.47;;;;;;;2.36;80.82;103325.44;5075338;28;20033;-60
2022/01/21 05:12:53;;;;;;;8.57;1.90;;;;;;;2.42;80.50;103333.78;5075217;28;20040;-62
2022/01/21 05:15:29;;;;;;;5.20;2.00;;;;;;;2.45;80.71;103337.56;5074767;28;20028;-61
2022/01/21 05:17:54;;;;;;;7.85;1.90;;;;;;;2.45;80.65;103334.03;5075178;28;20024;-61
2022/01/21 05:20:20;;;;;;;7.07;1.95;;;;;;;2.43;80.88;103327.75;5075098;28;20028;-60
2022/01/21 05:22:46;;;;;;;7.30;2.45;;;;;;;2.44;80.65;103334.78;5075043;28;20024;-60
2022/01/21 05:25:17;;;;;;;12.18;2.00;;;;;;;2.43;80.57;103344.31;5075074;28;20021;-60
2022/01/21 05:27:47;;;;;;;8.30;1.98;;;;;;;2.41;80.83;103332.88;5074782;28;20028;-61
2022/01/21 05:30:15;;;;;;;7.80;2.10;;;;;;;2.41;80.73;103342.41;5075069;28;20086;-61
2022/01/21 05:32:40;;;;;;;7.82;1.85;;;;;;;2.44;80.83;103342.63;5074935;28;20117;-61
2022/01/21 05:35:07;;;;;;;9.43;1.85;;;;;;;2.44;80.63;103347.84;5074736;28;20072;-61
2022/01/21 05:37:34;;;;;;;12.93;2.20;;;;;;;2.44;80.57;103343.56;5075105;28;20028;-61
2022/01/21 05:39:59;;;;;;;7.82;2.17;;;;;;;2.47;80.47;103350.72;5075033;28;20020;-61
2022/01/21 05:42:25;;;;;;;9.38;2.03;;;;;;;2.47;80.15;103343.81;5074639;28;20454;-60
2022/01/21 05:47:16;;;;;;;10.30;2.30;;;;;;;2.45;80.22;103342.78;5074580;28;20547;-61
2022/01/21 05:49:41;;;;;;;6.88;1.58;;;;;;;2.43;80.66;103344.31;5074528;28;20024;-60
2022/01/21 05:52:15;;;;;;;8.25;1.88;;;;;;;2.43;80.12;103338.19;5074515;28;20036;-60
2022/01/21 05:54:41;;;;;;;10.23;2.00;;;;;;;2.42;nan;103347.72;5074466;28;20031;-61
2022/01/21 05:57:09;;;;;;;7.10;2.08;;;;;;;2.41;80.75;103345.91;5074264;28;20058;-60
2022/01/21 05:59:34;;;;;;;12.23;2.50;;;;;;;2.43;81.04;103341.72;5074379;28;20131;-61
2022/01/21 06:02:00;;;;;;;9.38;2.22;;;;;;;2.45;81.12;103352.31;5074136;28;20542;-60
2022/01/21 06:04:26;;;;;;;9.68;2.03;;;;;;;2.43;81.00;103354.75;5074262;28;20028;-60
2022/01/21 06:06:51;;;;;;;9.10;2.50;;;;;;;2.46;80.76;103367.16;5074140;28;20032;-60
2022/01/21 06:09:17;;;;;;;7.00;1.95;;;;;;;2.45;80.52;103358.44;5074113;28;20024;-60
2022/01/21 06:11:42;;;;;;;7.57;2.05;;;;;;;2.45;80.92;103355.81;5073896;28;20055;-61
2022/01/21 06:14:08;;;;;;;6.70;2.17;;;;;;;2.48;80.76;103362.97;5073981;28;20028;-61
2022/01/21 06:16:38;;;;;;;7.68;1.88;;;;;;;2.47;80.73;103363.78;5073924;28;20471;-60
2022/01/21 06:19:05;;;;;;;8.57;2.17;;;;;;;2.46;80.54;103365.47;5074206;28;20020;-61
2022/01/21 06:21:30;;;;;;;10.82;2.00;;;;;;;2.47;80.11;103372.50;5073838;28;20094;-60
2022/01/21 06:23:56;;;;;;;9.68;2.20;;;;;;;2.48;80.55;103373.41;5073864;28;20355;-61
2022/01/21 06:26:21;;;;;;;8.82;2.35;;;;;;;2.49;81.17;103360.50;5073132;28;20046;-60
2022/01/21 06:28:47;;;;;;;13.05;2.50;;;;;;;2.51;80.27;103369.38;5073700;28;20028;-61
2022/01/21 06:31:13;;;;;;;9.32;2.53;;;;;;;2.50;79.77;103366.66;5073768;28;20028;-60
2022/01/21 06:33:38;;;;;;;8.25;2.40;;;;;;;2.56;80.37;103377.59;5073685;28;20047;-60
2022/01/21 06:36:04;;;;;;;7.22;2.10;;;;;;;2.53;80.12;103382.56;5073603;28;20355;-60
2022/01/21 06:38:29;;;;;;;8.38;2.30;;;;;;;2.48;80.61;103387.41;5073593;28;20028;-61
2022/01/21 06:40:55;;;;;;;6.78;2.03;;;;;;;2.46;80.76;103395.88;5073901;28;20474;-61
2022/01/21 06:43:21;;;;;;;7.60;2.10;;;;;;;2.47;80.48;103401.22;5073352;28;20035;-61
2022/01/21 06:45:48;;;;;;;6.38;2.22;;;;;;;2.50;80.81;103405.78;5073463;28;20109;-61
2022/01/21 06:48:14;;;;;;;11.35;2.72;;;;;;;2.51;80.79;103405.91;5073556;28;20024;-60
2022/01/21 06:50:42;;;;;;;11.32;2.88;;;;;;;2.57;80.49;103410.75;5073392;28;20438;-60
2022/01/21 06:53:08;;;;;;;13.20;2.88;;;;;;;2.59;80.75;103409.16;5073306;28;20485;-61
2022/01/21 06:55:33;;;;;;;8.35;2.50;;;;;;;2.58;80.60;103399.53;5073386;28;20029;-60
2022/01/21 06:57:59;;;;;;;7.68;2.33;;;;;;;2.63;80.61;103400.81;5073610;28;20078;-61
2022/01/21 07:00:24;;;;;;;9.32;3.08;;;;;;;2.69;80.60;103400.41;5073243;28;20378;-60
2022/01/21 07:02:52;;;;;;;14.10;3.20;;;;;;;2.73;80.52;103415.53;5073283;28;20042;-60
2022/01/21 07:05:19;;;;;;;11.25;2.50;;;;;;;2.75;80.74;103417.50;5073236;28;20024;-61
2022/01/21 07:07:44;;;;;;;11.70;2.75;;;;;;;2.78;80.65;103422.06;5073214;28;20020;-61
2022/01/21 07:10:12;;;;;;;8.68;2.55;;;;;;;2.78;80.79;103424.66;5073225;28;20016;-61
2022/01/21 07:12:38;;;;;;;10.30;2.63;;;;;;;2.80;80.35;103433.56;5073059;28;20077;-61
2022/01/21 07:15:09;;;;;;;12.23;2.85;;;;;;;2.79;80.28;103421.28;5073022;28;20029;-61
2022/01/21 07:17:35;;;;;;;9.20;2.80;;;;;;;2.81;80.52;103429.25;5073079;28;20420;-60
2022/01/21 07:20:01;;;;;;;8.38;2.53;;;;;;;2.83;80.43;103435.53;5073038;28;20021;-60
2022/01/21 07:22:31;;;;;;;8.80;2.78;;;;;;;2.85;80.37;103432.25;5072853;28;20115;-61
2022/01/21 07:24:56;;;;;;;10.43;3.30;;;;;;;2.89;80.82;103441.25;5072991;28;20025;-61
2022/01/21 07:27:22;;;;;;;12.98;3.60;;;;;;;2.87;80.82;103430.69;5072808;28;20039;-61
2022/01/21 07:29:47;;;;;;;8.02;3.03;;;;;;;2.95;80.95;103441.75;5073058;28;20082;-61
2022/01/21 07:32:13;;;;;;;11.02;3.30;;;;;;;2.99;81.31;103441.22;5073135;28;20029;-61
2022/01/21 07:34:38;;;;;;;10.88;3.65;;;;;;;2.95;80.78;103450.47;5072767;28;20509;-60
2022/01/21 07:37:04;;;;;;;8.23;3.55;;;;;;;2.91;81.47;103452.72;5072843;28;20017;-61
2022/01/21 07:39:29;;;;;;;7.95;3.50;;;;;;;2.89;81.30;103457.81;5076932;28;20101;-60
2022/01/21 07:41:55;;;;;;;11.30;3.47;;;;;;;2.90;81.37;103454.41;5077033;28;20112;-61
2022/01/21 07:44:20;;;;;;;16.90;4.32;;;;;;;2.89;81.89;103451.69;5076819;28;20527;-61
2022/01/21 07:46:46;;;;;;;8.98;3.90;;;;;;;2.89;81.64;103447.38;5077090;28;20033;-60
2022/01/21 07:49:15;;;;;;;14.20;4.32;;;;;;;2.88;81.88;103435.13;5076782;28;20512;-61
2022/01/21 07:51:41;;;;;;;11.85;4.03;;;;;;;2.91;81.87;103440.59;5076735;28;20028;-60
2022/01/21 07:54:07;;;;;;;10.07;4.07;;;;;;;2.96;81.61;103439.28;5076717;28;20025;-60
2022/01/21 07:56:33;;;;;;;10.55;4.10;;;;;;;3.00;81.80;103446.59;5076734;28;20043;-61
2022/01/21 07:59:02;;;;;;;10.60;4.00;;;;;;;3.06;81.35;103445.25;5076374;28;20071;-61
2022/01/21 08:01:28;;;;;;;13.23;4.18;;;;;;;3.09;81.60;103440.31;5076284;28;20039;-61
2022/01/21 08:03:53;;;;;;;8.70;4.00;;;;;;;3.10;81.69;103426.44;5076523;28;20099;-60
2022/01/21 08:06:19;;;;;;;14.55;4.75;;;;;;;3.12;81.42;103427.47;5076241;28;20103;-61
2022/01/21 08:08:44;;;;;;;13.07;4.30;;;;;;;3.16;80.94;103424.31;5076474;28;20025;-61
2022/01/21 08:11:10;;;;;;;11.50;4.38;;;;;;;3.25;81.30;103417.22;5076419;28;20028;-60
2022/01/21 08:13:36;;;;;;;10.75;4.40;;;;;;;3.32;80.85;103403.88;5076204;28;20126;-61
2022/01/21 08:16:01;;;;;;;16.40;4.55;;;;;;;3.38;80.70;103411.31;5076178;28;20036;-61
2022/01/21 08:18:27;;;;;;;10.15;3.75;;;;;;;3.39;80.61;103416.69;5076207;28;20399;-60
2022/01/21 08:20:52;;;;;;;9.70;4.03;;;;;;;3.48;81.50;103414.81;5076140;28;20052;-61
2022/01/21 08:23:18;;;;;;;9.80;3.65;;;;;;;3.71;81.46;103410.50;5076026;28;20466;-61
2022/01/21 08:25:44;;;;;;;13.73;4.47;;;;;;;3.98;81.00;103410.09;5076173;28;20036;-60
2022/01/21 08:28:10;;;;;;;12.00;3.80;;;;;;;4.14;79.41;103406.94;5076014;28;20042;-62
2022/01/21 08:30:36;;;;;;;12.20;3.83;;;;;;;4.26;78.71;103409.59;5075852;28;20036;-61
2022/01/21 08:33:03;;;;;;;10.65;3.50;;;;;;;4.26;78.49;103412.22;5075955;28;20509;-61
2022/01/21 08:35:28;;;;;;;9.18;3.72;;;;;;;4.22;78.67;103411.06;5075635;28;20049;-61
2022/01/21 08:37:54;;;;;;;11.95;3.53;;;;;;;4.22;78.25;103418.00;5075887;28;20020;-61
2022/01/21 08:40:21;;;;;;;9.57;3.45;;;;;;;4.19;77.96;103425.63;5075916;28;20025;-61
2022/01/21 08:42:46;;;;;;;16.80;3.88;;;;;;;4.16;78.02;103428.03;5075753;28;20382;-61
2022/01/21 08:45:13;;;;;;;9.02;3.70;;;;;;;4.12;77.63;103426.84;5075537;28;20025;-61
2022/01/21 08:47:41;;;;;;;11.23;4.00;;;;;;;4.12;79.48;103415.47;5075969;28;20032;-61
2022/01/21 08:50:09;;;;;;;11.13;4.00;;;;;;;4.18;78.98;103421.19;5074957;28;20032;-60
2022/01/21 08:52:37;;;;;;;10.10;3.72;;;;;;;4.38;78.70;103427.97;5075765;28;20059;-61
2022/01/21 08:55:05;;;;;;;11.45;3.70;;;;;;;4.57;78.60;103431.19;5075692;28;20033;-60
2022/01/21 08:57:32;;;;;;;16.40;4.05;;;;;;;4.75;77.37;103434.31;5075757;28;20043;-60
2022/01/21 08:59:58;;;;;;;9.57;3.58;;;;;;;4.87;77.22;103447.44;5075319;28;20111;-60
2022/01/21 09:02:25;;;;;;;13.30;3.72;;;;;;;4.93;76.85;103438.34;5075539;28;20367;-61
2022/01/21 09:04:51;;;;;;;13.48;3.60;;;;;;;5.07;77.13;103428.88;5075335;28;20032;-61
2022/01/21 09:07:16;;;;;;;12.45;3.58;;;;;;;5.39;78.18;103419.84;5075460;28;20108;-61
2022/01/21 09:09:42;;;;;;;9.38;3.38;;;;;;;5.81;76.44;103402.75;5075365;28;20020;-61
2022/01/21 09:12:07;;;;;;;11.90;3.50;;;;;;;6.10;74.35;103402.25;5075342;28;20036;-60
2022/01/21 09:14:33;;;;;;;14.88;3.67;;;;;;;6.26;73.10;103384.13;5075085;28;20029;-61
2022/01/21 09:17:00;;;;;;;10.07;3.28;;;;;;;6.59;74.26;103402.97;5075139;28;20020;-60
2022/01/21 09:19:26;;;;;;;13.85;4.45;;;;;;;7.00;72.54;103390.91;5075270;28;20025;-61
2022/01/21 09:21:54;;;;;;;7.40;3.08;;;;;;;7.49;71.10;103390.56;5075052;28;20021;-61
2022/01/21 09:24:19;;;;;;;8.95;3.30;;;;;;;7.89;70.01;103390.47;5075107;28;20028;-61
2022/01/21 09:26:46;;;;;;;10.27;3.28;;;;;;;8.32;69.29;103390.47;5075089;28;20102;-61
2022/01/21 09:29:12;;;;;;;8.00;3.35;;;;;;;8.73;67.69;103393.88;5074890;28;20033;-62
2022/01/21 09:31:37;;;;;;;10.00;3.42;;;;;;;9.07;66.36;103395.84;5075038;28;20036;-61
2022/01/21 09:34:05;;;;;;;7.60;2.80;;;;;;;9.35;64.81;103401.00;5074852;28;20087;-62
2022/01/21 09:36:30;;;;;;;9.57;2.95;;;;;;;9.65;64.23;103412.34;5074851;28;20035;-61
2022/01/21 09:38:55;;;;;;;11.40;3.33;;;;;;;9.95;64.03;103401.66;5075084;28;20028;-61
2022/01/21 09:41:21;;;;;;;10.80;3.35;;;;;;;10.22;63.17;103415.44;5074615;28;20418;-61
2022/01/21 09:43:48;;;;;;;7.63;3.00;;;;;;;10.43;62.58;103405.13;5074712;28;20250;-61
2022/01/21 09:46:16;;;;;;;9.20;3.28;;;;;;;10.63;61.74;103404.44;5074512;28;20416;-61
2022/01/21 09:48:52;;;;;;;8.57;3.20;;;;;;;10.85;61.35;103395.88;5074740;28;20021;-61
2022/01/21 09:51:18;;;;;;;8.38;3.10;;;;;;;11.02;58.62;103409.94;5074502;28;20466;-61
2022/01/21 09:53:44;;;;;;;7.88;3.60;;;;;;;11.21;59.87;103412.66;5074553;28;20027;-61
2022/01/21 09:56:14;;;;;;;14.80;3.20;;;;;;;11.31;58.35;103415.78;5074472;28;20421;-61
2022/01/21 09:58:42;;;;;;;8.63;2.75;;;;;;;11.36;57.94;103417.81;5074213;28;20024;-62
2022/01/21 10:01:09;;;;;;;9.75;3.00;;;;;;;11.47;58.08;103432.44;5073179;28;20024;-61
2022/01/21 10:03:35;;;;;;;10.98;3.10;;;;;;;11.46;58.40;103437.69;5074377;28;20095;-61
2022/01/21 10:06:02;;;;;;;8.40;2.88;;;;;;;11.62;58.29;103436.69;5074288;28;20112;-61
2022/01/21 10:08:28;;;;;;;9.48;2.90;;;;;;;11.63;56.55;103430.56;5074221;28;20040;-61
2022/01/21 10:10:54;;;;;;;9.05;2.70;;;;;;;11.86;56.61;103442.25;5074418;28;20028;-61
2022/01/21 10:13:20;;;;;;;11.23;2.90;;;;;;;11.86;56.52;103439.63;5073910;28;20024;-61
2022/01/21 10:15:47;;;;;;;8.43;2.72;;;;;;;11.81;56.21;103439.38;5073966;28;20032;-61
2022/01/21 10:18:13;;;;;;;13.45;2.95;;;;;;;11.76;56.58;103452.41;5073979;28;20041;-61
2022/01/21 10:20:57;;;;;;;9.30;2.75;;;;;;;11.64;58.80;103459.75;5073859;28;20382;-60
2022/01/21 10:23:23;;;;;;;11.02;2.83;;;;;;;11.78;57.52;103456.03;5073859;28;20056;-61
2022/01/21 10:26:04;;;;;;;8.20;2.97;;;;;;;11.79;58.15;103457.84;5073679;28;20060;-62
2022/01/21 10:28:31;;;;;;;10.35;3.08;;;;;;;11.89;56.04;103461.88;5073812;28;20032;-61
2022/01/21 10:31:10;;;;;;;11.02;3.50;;;;;;;11.57;57.10;103457.66;5073884;28;20077;-61
2022/01/21 10:33:39;;;;;;;8.07;3.70;;;;;;;11.37;57.56;103451.38;5073711;28;20048;-61
2022/01/21 10:36:12;;;;;;;9.63;3.50;;;;;;;11.68;57.23;103456.41;5073655;28;20072;-62
2022/01/21 10:38:43;;;;;;;12.93;3.42;;;;;;;12.09;56.59;103462.81;5073510;28;20032;-62
2022/01/21 10:41:15;;;;;;;7.75;2.80;;;;;;;12.20;56.08;103456.25;5073795;28;20016;-62
2022/01/21 10:43:42;;;;;;;9.25;2.90;;;;;;;12.39;55.43;103462.41;5073670;28;20025;-61
2022/01/21 10:46:13;;;;;;;11.65;3.05;;;;;;;12.24;54.87;103463.50;5073739;28;20033;-62
2022/01/21 10:49:12;;;;;;;9.82;2.83;;;;;;;11.98;57.56;103464.03;5073470;28;20089;-63
2022/01/21 10:51:40;;;;;;;11.93;3.28;;;;;;;11.64;56.54;103456.19;4972808;28;20104;-61
2022/01/21 10:54:11;;;;;;;13.68;2.97;;;;;;;11.47;57.34;103453.63;4972792;28;20038;-60
2022/01/21 10:56:37;;;;;;;9.15;2.80;;;;;;;11.34;56.46;103455.59;4972813;28;20158;-61
2022/01/21 10:59:02;;;;;;;11.35;3.00;;;;;;;11.39;57.48;103447.09;4972552;28;20117;-61
2022/01/21 11:01:30;;;;;;;12.77;3.13;;;;;;;11.28;57.94;103451.84;4972434;28;20042;-63
2022/01/21 11:04:12;;;;;;;10.38;2.80;;;;;;;11.00;59.45;103445.97;4972454;28;20473;-61
2022/01/21 11:06:51;;;;;;;;;;;;;;;11.02;61.72;103449.63;4972951;28;20039;-61
2022/01/21 11:09:29;;;;;;;11.50;2.67;;;;;;;10.74;61.09;103448.19;4972472;28;19977;-62
2022/01/21 11:12:10;;;;;;;9.70;2.63;;;;;;;10.55;61.71;103433.97;4972378;28;20097;-61
2022/01/21 11:14:37;;;;;;;10.88;2.88;;;;;;;10.33;62.62;103429.28;4972580;28;20038;-61
2022/01/21 11:17:16;;;;;;;10.35;2.60;;;;;;;10.14;63.46;103417.66;4972372;28;20034;-62
2022/01/21 11:20:03;;;;;;;9.35;2.60;;;;;;;10.09;64.73;103408.59;4972283;28;20122;-63
2022/01/21 11:22:29;;;;;;;9.50;2.67;;;;;;;10.10;64.57;103407.75;4972128;28;20380;-62
2022/01/21 11:24:59;;;;;;;11.73;2.90;;;;;;;10.00;64.79;103411.66;4972207;28;20034;-61
2022/01/21 11:27:26;;;;;;;10.18;2.50;;;;;;;10.02;64.27;103394.16;5032175;28;20041;-61
2022/01/21 11:29:53;;;;;;;13.73;3.00;;;;;;;10.11;64.83;103399.03;5073057;28;20031;-61
2022/01/21 11:32:19;;;;;;;12.43;3.33;;;;;;;10.03;65.56;103387.16;5072779;28;20101;-62
2022/01/21 11:34:52;;;;;;;11.05;3.03;;;;;;;9.93;65.62;103393.63;5073210;28;20563;-60
2022/01/21 11:37:22;;;;;;;15.47;3.27;;;;;;;9.90;65.00;103389.94;5072899;28;20032;-61
2022/01/21 11:39:50;;;;;;;16.50;3.40;;;;;;;9.73;65.29;103394.31;5073010;28;20032;-61
2022/01/21 11:42:17;;;;;;;12.25;3.05;;;;;;;9.68;65.69;103398.44;5072845;28;20028;-62
2022/01/21 11:44:51;;;;;;;11.35;2.75;;;;;;;9.69;65.92;103398.50;5073118;28;20031;-62
2022/01/21 11:47:29;;;;;;;12.75;2.80;;;;;;;9.76;66.46;103391.81;5072808;28;20036;-61
2022/01/21 11:49:58;;;;;;;12.02;3.10;;;;;;;9.69;65.30;103394.97;5072615;28;20025;-62
2022/01/21 11:52:24;;;;;;;13.30;3.53;;;;;;;9.65;66.47;103396.53;5072792;28;20474;-62
2022/01/21 11:54:50;;;;;;;9.65;2.75;;;;;;;9.73;66.40;103395.22;5072503;28;20035;-61
2022/01/21 11:57:27;;;;;;;9.40;2.90;;;;;;;9.78;66.61;103388.44;5072488;28;20108;-61
2022/01/21 12:00:02;;;;;;;10.68;2.95;;;;;;;9.83;66.01;103393.06;5072571;28;20029;-62
2022/01/21 12:02:30;;;;;;;10.93;3.20;;;;;;;9.79;66.58;103394.63;5054373;28;20055;-60
2022/01/21 12:04:59;;;;;;;16.00;3.15;;;;;;;9.78;66.09;103400.75;5072813;28;20059;-59
2022/01/21 12:07:33;;;;;;;13.82;3.38;;;;;;;9.82;66.65;103388.63;5072592;28;20021;-59
2022/01/21 12:10:00;;;;;;;16.80;3.03;;;;;;;9.77;65.96;103370.78;5072658;28;20029;-62